sensor_id;sensor_type;location;lat;lon;timestamp;P1;durP1;ratioP1;P2;durP2;ratioP2
17052;SDS011;8643;48.824;11.422;2022-12-16T00:01:08;45.13;;;18.97;;
17052;SDS011;8643;48.824;11.422;2022-12-16T00:03:40;44.60;;;18.67;;
17052;SDS011;8643;48.824;11.422;2022-12-16T00:06:14;46.40;;;18.43;;
17052;SDS011;8643;48.824;11.422;2022-12-16T00:08:43;46.33;;;19.03;;
17052;SDS011;8643;48.824;11.422;2022-12-16T00:11:12;46.60;;;19.10;;
17052;SDS011;8643;48.824;11.422;2022-12-16T00:13:41;46.80;;;18.93;;
17052;SDS011;8643;48.824;11.422;2022-12-16T00:16:12;43.03;;;18.37;;
17052;SDS011;8643;48.824;11.422;2022-12-16T00:18:43;42.50;;;18.23;;
17052;SDS011;8643;48.824;11.422;2022-12-16T00:21:12;42.97;;;17.30;;
17052;SDS011;8643;48.824;11.422;2022-12-16T00:23:43;45.47;;;19.20;;
17052;SDS011;8643;48.824;11.422;2022-12-16T00:26:12;44.43;;;18.27;;
17052;SDS011;8643;48.824;11.422;2022-12-16T00:28:41;44.00;;;19.47;;
17052;SDS011;8643;48.824;11.422;2022-12-16T00:31:10;43.33;;;19.30;;
17052;SDS011;8643;48.824;11.422;2022-12-16T00:33:40;45.27;;;19.43;;
17052;SDS011;8643;48.824;11.422;2022-12-16T00:36:09;48.63;;;19.77;;
17052;SDS011;8643;48.824;11.422;2022-12-16T00:38:37;49.50;;;21.47;;
17052;SDS011;8643;48.824;11.422;2022-12-16T00:41:06;46.63;;;21.33;;
17052;SDS011;8643;48.824;11.422;2022-12-16T00:43:36;49.23;;;20.87;;
17052;SDS011;8643;48.824;11.422;2022-12-16T00:46:04;50.57;;;21.53;;
17052;SDS011;8643;48.824;11.422;2022-12-16T00:48:34;48.10;;;20.17;;
17052;SDS011;8643;48.824;11.422;2022-12-16T00:51:02;52.03;;;21.73;;
17052;SDS011;8643;48.824;11.422;2022-12-16T00:53:31;47.67;;;20.53;;
17052;SDS011;8643;48.824;11.422;2022-12-16T00:56:02;50.23;;;21.93;;
17052;SDS011;8643;48.824;11.422;2022-12-16T00:58:32;47.70;;;21.03;;
17052;SDS011;8643;48.824;11.422;2022-12-16T01:01:01;52.00;;;22.40;;
17052;SDS011;8643;48.824;11.422;2022-12-16T01:03:31;53.60;;;22.27;;
17052;SDS011;8643;48.824;11.422;2022-12-16T01:06:06;53.47;;;22.23;;
17052;SDS011;8643;48.824;11.422;2022-12-16T01:08:36;50.20;;;21.97;;
17052;SDS011;8643;48.824;11.422;2022-12-16T01:11:04;48.43;;;21.77;;
17052;SDS011;8643;48.824;11.422;2022-12-16T01:13:33;55.50;;;22.17;;
17052;SDS011;8643;48.824;11.422;2022-12-16T01:16:03;51.87;;;22.03;;
17052;SDS011;8643;48.824;11.422;2022-12-16T01:18:33;52.90;;;21.77;;
17052;SDS011;8643;48.824;11.422;2022-12-16T01:21:02;51.80;;;21.87;;
17052;SDS011;8643;48.824;11.422;2022-12-16T01:23:33;52.00;;;23.50;;
17052;SDS011;8643;48.824;11.422;2022-12-16T01:26:02;51.77;;;21.93;;
17052;SDS011;8643;48.824;11.422;2022-12-16T01:28:31;55.80;;;22.47;;
17052;SDS011;8643;48.824;11.422;2022-12-16T01:31:00;52.00;;;22.67;;
17052;SDS011;8643;48.824;11.422;2022-12-16T01:33:28;57.20;;;22.77;;
17052;SDS011;8643;48.824;11.422;2022-12-16T01:36:02;55.60;;;22.20;;
17052;SDS011;8643;48.824;11.422;2022-12-16T01:38:34;55.40;;;22.17;;
17052;SDS011;8643;48.824;11.422;2022-12-16T01:41:03;53.47;;;21.67;;
17052;SDS011;8643;48.824;11.422;2022-12-16T01:43:34;51.37;;;21.73;;
17052;SDS011;8643;48.824;11.422;2022-12-16T01:46:05;54.00;;;22.53;;
17052;SDS011;8643;48.824;11.422;2022-12-16T01:48:43;50.13;;;21.03;;
17052;SDS011;8643;48.824;11.422;2022-12-16T01:51:17;53.60;;;22.77;;
17052;SDS011;8643;48.824;11.422;2022-12-16T01:53:55;51.07;;;21.27;;
17052;SDS011;8643;48.824;11.422;2022-12-16T01:56:31;51.60;;;21.83;;
17052;SDS011;8643;48.824;11.422;2022-12-16T01:59:03;49.23;;;21.40;;
17052;SDS011;8643;48.824;11.422;2022-12-16T02:01:33;53.03;;;23.07;;
17052;SDS011;8643;48.824;11.422;2022-12-16T02:04:02;58.03;;;23.33;;
17052;SDS011;8643;48.824;11.422;2022-12-16T02:06:32;57.80;;;24.30;;
17052;SDS011;8643;48.824;11.422;2022-12-16T02:09:02;50.07;;;23.27;;
17052;SDS011;8643;48.824;11.422;2022-12-16T02:11:41;52.40;;;21.93;;
17052;SDS011;8643;48.824;11.422;2022-12-16T02:17:32;50.33;;;21.50;;
17052;SDS011;8643;48.824;11.422;2022-12-16T02:20:15;52.07;;;22.33;;
17052;SDS011;8643;48.824;11.422;2022-12-16T02:23:24;53.77;;;22.63;;
17052;SDS011;8643;48.824;11.422;2022-12-16T02:26:18;53.53;;;22.00;;
17052;SDS011;8643;48.824;11.422;2022-12-16T02:32:40;52.83;;;21.97;;
17052;SDS011;8643;48.824;11.422;2022-12-16T02:35:23;57.13;;;22.63;;
17052;SDS011;8643;48.824;11.422;2022-12-16T02:38:05;51.43;;;22.53;;
17052;SDS011;8643;48.824;11.422;2022-12-16T02:40:49;51.67;;;21.73;;
17052;SDS011;8643;48.824;11.422;2022-12-16T02:43:42;58.03;;;23.40;;
17052;SDS011;8643;48.824;11.422;2022-12-16T02:46:21;55.23;;;23.40;;
17052;SDS011;8643;48.824;11.422;2022-12-16T02:49:03;56.33;;;23.30;;
17052;SDS011;8643;48.824;11.422;2022-12-16T02:51:33;59.60;;;23.73;;
17052;SDS011;8643;48.824;11.422;2022-12-16T02:54:04;62.03;;;24.77;;
17052;SDS011;8643;48.824;11.422;2022-12-16T02:56:40;58.30;;;24.80;;
17052;SDS011;8643;48.824;11.422;2022-12-16T02:59:26;60.43;;;25.10;;
17052;SDS011;8643;48.824;11.422;2022-12-16T03:02:09;64.50;;;26.30;;
17052;SDS011;8643;48.824;11.422;2022-12-16T03:04:50;58.87;;;24.33;;
17052;SDS011;8643;48.824;11.422;2022-12-16T03:07:25;59.37;;;24.47;;
17052;SDS011;8643;48.824;11.422;2022-12-16T03:09:59;57.77;;;23.90;;
17052;SDS011;8643;48.824;11.422;2022-12-16T03:12:33;61.33;;;24.77;;
17052;SDS011;8643;48.824;11.422;2022-12-16T03:15:07;60.43;;;25.60;;
17052;SDS011;8643;48.824;11.422;2022-12-16T03:17:39;59.53;;;25.43;;
17052;SDS011;8643;48.824;11.422;2022-12-16T03:20:10;60.77;;;24.70;;
17052;SDS011;8643;48.824;11.422;2022-12-16T03:22:45;62.03;;;25.67;;
17052;SDS011;8643;48.824;11.422;2022-12-16T03:25:18;62.47;;;25.10;;
17052;SDS011;8643;48.824;11.422;2022-12-16T03:27:52;61.33;;;26.53;;
17052;SDS011;8643;48.824;11.422;2022-12-16T03:30:31;60.33;;;25.20;;
17052;SDS011;8643;48.824;11.422;2022-12-16T03:33:06;58.87;;;25.53;;
17052;SDS011;8643;48.824;11.422;2022-12-16T03:35:47;59.13;;;24.67;;
17052;SDS011;8643;48.824;11.422;2022-12-16T03:38:20;60.30;;;25.70;;
17052;SDS011;8643;48.824;11.422;2022-12-16T03:40:51;59.63;;;25.70;;
17052;SDS011;8643;48.824;11.422;2022-12-16T03:43:22;60.87;;;26.00;;
17052;SDS011;8643;48.824;11.422;2022-12-16T03:45:52;64.53;;;26.47;;
17052;SDS011;8643;48.824;11.422;2022-12-16T03:48:27;60.67;;;24.90;;
17052;SDS011;8643;48.824;11.422;2022-12-16T03:50:57;59.33;;;25.80;;
17052;SDS011;8643;48.824;11.422;2022-12-16T03:53:26;62.60;;;26.43;;
17052;SDS011;8643;48.824;11.422;2022-12-16T03:55:55;57.40;;;24.57;;
17052;SDS011;8643;48.824;11.422;2022-12-16T03:58:24;62.03;;;25.47;;
17052;SDS011;8643;48.824;11.422;2022-12-16T04:00:52;61.40;;;26.33;;
17052;SDS011;8643;48.824;11.422;2022-12-16T04:03:21;63.80;;;27.03;;
17052;SDS011;8643;48.824;11.422;2022-12-16T04:05:52;64.43;;;26.30;;
17052;SDS011;8643;48.824;11.422;2022-12-16T04:08:21;62.23;;;26.00;;
17052;SDS011;8643;48.824;11.422;2022-12-16T04:10:50;61.90;;;25.90;;
17052;SDS011;8643;48.824;11.422;2022-12-16T04:13:36;57.50;;;24.73;;
17052;SDS011;8643;48.824;11.422;2022-12-16T04:16:22;66.53;;;26.63;;
17052;SDS011;8643;48.824;11.422;2022-12-16T04:19:13;67.53;;;27.37;;
17052;SDS011;8643;48.824;11.422;2022-12-16T04:22:10;60.03;;;24.80;;
17052;SDS011;8643;48.824;11.422;2022-12-16T04:25:03;58.73;;;24.10;;
17052;SDS011;8643;48.824;11.422;2022-12-16T04:27:36;65.10;;;26.53;;
17052;SDS011;8643;48.824;11.422;2022-12-16T04:30:05;67.33;;;26.23;;
17052;SDS011;8643;48.824;11.422;2022-12-16T04:32:48;71.90;;;28.60;;
17052;SDS011;8643;48.824;11.422;2022-12-16T04:35:39;65.30;;;26.13;;
17052;SDS011;8643;48.824;11.422;2022-12-16T04:38:25;66.40;;;27.67;;
17052;SDS011;8643;48.824;11.422;2022-12-16T04:41:13;67.50;;;28.13;;
17052;SDS011;8643;48.824;11.422;2022-12-16T04:43:59;69.53;;;28.03;;
17052;SDS011;8643;48.824;11.422;2022-12-16T04:46:45;63.73;;;25.83;;
17052;SDS011;8643;48.824;11.422;2022-12-16T04:49:31;66.97;;;27.47;;
17052;SDS011;8643;48.824;11.422;2022-12-16T04:52:17;68.77;;;26.73;;
17052;SDS011;8643;48.824;11.422;2022-12-16T04:55:04;59.20;;;25.03;;
17052;SDS011;8643;48.824;11.422;2022-12-16T04:57:53;65.40;;;26.10;;
17052;SDS011;8643;48.824;11.422;2022-12-16T05:00:41;60.70;;;25.10;;
17052;SDS011;8643;48.824;11.422;2022-12-16T05:03:28;63.03;;;25.20;;
17052;SDS011;8643;48.824;11.422;2022-12-16T05:06:14;56.77;;;23.17;;
17052;SDS011;8643;48.824;11.422;2022-12-16T05:09:01;60.57;;;24.60;;
17052;SDS011;8643;48.824;11.422;2022-12-16T05:11:47;61.63;;;23.97;;
17052;SDS011;8643;48.824;11.422;2022-12-16T05:14:36;62.37;;;23.93;;
17052;SDS011;8643;48.824;11.422;2022-12-16T05:17:22;57.77;;;25.10;;
17052;SDS011;8643;48.824;11.422;2022-12-16T05:20:08;58.80;;;24.17;;
17052;SDS011;8643;48.824;11.422;2022-12-16T05:22:54;52.77;;;22.13;;
17052;SDS011;8643;48.824;11.422;2022-12-16T05:25:41;58.67;;;23.47;;
17052;SDS011;8643;48.824;11.422;2022-12-16T05:28:27;56.93;;;23.83;;
17052;SDS011;8643;48.824;11.422;2022-12-16T05:31:15;53.53;;;22.40;;
17052;SDS011;8643;48.824;11.422;2022-12-16T05:34:01;60.03;;;24.90;;
17052;SDS011;8643;48.824;11.422;2022-12-16T05:36:47;57.40;;;23.43;;
17052;SDS011;8643;48.824;11.422;2022-12-16T05:39:33;54.80;;;22.80;;
17052;SDS011;8643;48.824;11.422;2022-12-16T05:42:19;56.43;;;22.37;;
17052;SDS011;8643;48.824;11.422;2022-12-16T05:45:05;59.30;;;23.97;;
17052;SDS011;8643;48.824;11.422;2022-12-16T05:47:53;55.93;;;22.20;;
17052;SDS011;8643;48.824;11.422;2022-12-16T05:50:39;56.00;;;21.67;;
17052;SDS011;8643;48.824;11.422;2022-12-16T05:53:25;54.03;;;23.07;;
17052;SDS011;8643;48.824;11.422;2022-12-16T05:56:11;55.33;;;22.40;;
17052;SDS011;8643;48.824;11.422;2022-12-16T05:58:57;57.70;;;24.13;;
17052;SDS011;8643;48.824;11.422;2022-12-16T06:01:43;57.57;;;22.87;;
17052;SDS011;8643;48.824;11.422;2022-12-16T06:04:31;57.20;;;22.37;;
17052;SDS011;8643;48.824;11.422;2022-12-16T06:07:16;56.77;;;22.43;;
17052;SDS011;8643;48.824;11.422;2022-12-16T06:10:03;59.80;;;23.83;;
17052;SDS011;8643;48.824;11.422;2022-12-16T06:12:49;57.13;;;23.57;;
17052;SDS011;8643;48.824;11.422;2022-12-16T06:15:35;57.83;;;23.10;;
17052;SDS011;8643;48.824;11.422;2022-12-16T06:18:21;53.97;;;21.90;;
17052;SDS011;8643;48.824;11.422;2022-12-16T06:21:17;53.13;;;20.83;;
17052;SDS011;8643;48.824;11.422;2022-12-16T06:24:17;53.27;;;20.23;;
17052;SDS011;8643;48.824;11.422;2022-12-16T06:27:03;51.73;;;20.37;;
17052;SDS011;8643;48.824;11.422;2022-12-16T06:29:49;53.67;;;20.87;;
17052;SDS011;8643;48.824;11.422;2022-12-16T06:32:37;55.70;;;21.23;;
17052;SDS011;8643;48.824;11.422;2022-12-16T06:35:23;53.70;;;20.83;;
17052;SDS011;8643;48.824;11.422;2022-12-16T06:38:21;53.67;;;22.13;;
17052;SDS011;8643;48.824;11.422;2022-12-16T06:41:07;52.43;;;21.47;;
17052;SDS011;8643;48.824;11.422;2022-12-16T06:44:01;48.13;;;20.37;;
17052;SDS011;8643;48.824;11.422;2022-12-16T06:46:48;54.10;;;21.77;;
17052;SDS011;8643;48.824;11.422;2022-12-16T06:49:34;57.83;;;22.30;;
17052;SDS011;8643;48.824;11.422;2022-12-16T06:52:20;53.93;;;21.77;;
17052;SDS011;8643;48.824;11.422;2022-12-16T06:55:07;50.93;;;20.47;;
17052;SDS011;8643;48.824;11.422;2022-12-16T06:57:55;54.23;;;22.00;;
17052;SDS011;8643;48.824;11.422;2022-12-16T07:00:42;52.53;;;21.97;;
17052;SDS011;8643;48.824;11.422;2022-12-16T07:03:29;50.67;;;21.33;;
17052;SDS011;8643;48.824;11.422;2022-12-16T07:06:15;51.33;;;21.83;;
17052;SDS011;8643;48.824;11.422;2022-12-16T07:09:01;54.97;;;22.23;;
17052;SDS011;8643;48.824;11.422;2022-12-16T07:11:49;58.73;;;23.00;;
17052;SDS011;8643;48.824;11.422;2022-12-16T07:14:35;49.70;;;20.93;;
17052;SDS011;8643;48.824;11.422;2022-12-16T07:17:26;55.40;;;22.23;;
17052;SDS011;8643;48.824;11.422;2022-12-16T07:20:12;61.63;;;24.03;;
17052;SDS011;8643;48.824;11.422;2022-12-16T07:22:58;59.23;;;23.87;;
17052;SDS011;8643;48.824;11.422;2022-12-16T07:26:03;54.27;;;21.77;;
17052;SDS011;8643;48.824;11.422;2022-12-16T07:28:51;53.37;;;22.33;;
17052;SDS011;8643;48.824;11.422;2022-12-16T07:31:39;58.43;;;23.33;;
17052;SDS011;8643;48.824;11.422;2022-12-16T07:34:25;55.63;;;21.90;;
17052;SDS011;8643;48.824;11.422;2022-12-16T07:37:15;54.87;;;22.93;;
17052;SDS011;8643;48.824;11.422;2022-12-16T07:40:02;52.40;;;21.10;;
17052;SDS011;8643;48.824;11.422;2022-12-16T07:42:48;58.03;;;23.70;;
17052;SDS011;8643;48.824;11.422;2022-12-16T07:45:36;59.30;;;22.00;;
17052;SDS011;8643;48.824;11.422;2022-12-16T07:48:21;55.53;;;22.43;;
17052;SDS011;8643;48.824;11.422;2022-12-16T07:51:08;61.90;;;24.57;;
17052;SDS011;8643;48.824;11.422;2022-12-16T07:53:56;57.80;;;22.70;;
17052;SDS011;8643;48.824;11.422;2022-12-16T07:56:42;56.80;;;23.77;;
17052;SDS011;8643;48.824;11.422;2022-12-16T07:59:28;55.57;;;21.20;;
17052;SDS011;8643;48.824;11.422;2022-12-16T08:02:15;52.87;;;21.60;;
17052;SDS011;8643;48.824;11.422;2022-12-16T08:05:02;56.30;;;22.47;;
17052;SDS011;8643;48.824;11.422;2022-12-16T08:07:48;55.23;;;23.07;;
17052;SDS011;8643;48.824;11.422;2022-12-16T08:10:34;53.77;;;21.63;;
17052;SDS011;8643;48.824;11.422;2022-12-16T08:13:20;53.27;;;21.20;;
17052;SDS011;8643;48.824;11.422;2022-12-16T08:16:06;55.13;;;22.27;;
17052;SDS011;8643;48.824;11.422;2022-12-16T08:18:54;54.60;;;22.63;;
17052;SDS011;8643;48.824;11.422;2022-12-16T08:21:40;55.43;;;22.40;;
17052;SDS011;8643;48.824;11.422;2022-12-16T08:24:26;60.03;;;24.23;;
17052;SDS011;8643;48.824;11.422;2022-12-16T08:27:18;52.50;;;22.23;;
17052;SDS011;8643;48.824;11.422;2022-12-16T08:30:04;55.50;;;22.40;;
17052;SDS011;8643;48.824;11.422;2022-12-16T08:32:52;50.50;;;19.97;;
17052;SDS011;8643;48.824;11.422;2022-12-16T08:35:46;50.97;;;20.77;;
17052;SDS011;8643;48.824;11.422;2022-12-16T08:38:32;49.23;;;20.33;;
17052;SDS011;8643;48.824;11.422;2022-12-16T08:41:21;52.37;;;20.47;;
17052;SDS011;8643;48.824;11.422;2022-12-16T08:44:07;46.17;;;19.47;;
17052;SDS011;8643;48.824;11.422;2022-12-16T08:46:53;47.83;;;19.77;;
17052;SDS011;8643;48.824;11.422;2022-12-16T08:49:40;50.50;;;21.90;;
17052;SDS011;8643;48.824;11.422;2022-12-16T08:52:29;50.97;;;21.17;;
17052;SDS011;8643;48.824;11.422;2022-12-16T08:55:15;46.53;;;20.57;;
17052;SDS011;8643;48.824;11.422;2022-12-16T08:58:01;52.77;;;20.70;;
17052;SDS011;8643;48.824;11.422;2022-12-16T09:00:47;52.30;;;20.93;;
17052;SDS011;8643;48.824;11.422;2022-12-16T09:03:33;49.70;;;21.10;;
17052;SDS011;8643;48.824;11.422;2022-12-16T09:06:21;50.23;;;21.47;;
17052;SDS011;8643;48.824;11.422;2022-12-16T09:09:08;48.20;;;20.40;;
17052;SDS011;8643;48.824;11.422;2022-12-16T09:11:55;48.90;;;21.27;;
17052;SDS011;8643;48.824;11.422;2022-12-16T09:14:41;46.67;;;21.03;;
17052;SDS011;8643;48.824;11.422;2022-12-16T09:17:27;50.30;;;21.57;;
17052;SDS011;8643;48.824;11.422;2022-12-16T09:20:13;48.00;;;20.17;;
17052;SDS011;8643;48.824;11.422;2022-12-16T09:23:08;47.67;;;21.03;;
17052;SDS011;8643;48.824;11.422;2022-12-16T09:25:55;48.00;;;20.77;;
17052;SDS011;8643;48.824;11.422;2022-12-16T09:28:41;45.60;;;20.07;;
17052;SDS011;8643;48.824;11.422;2022-12-16T09:31:27;48.00;;;20.23;;
17052;SDS011;8643;48.824;11.422;2022-12-16T09:34:14;46.33;;;20.00;;
17052;SDS011;8643;48.824;11.422;2022-12-16T09:37:00;41.67;;;19.70;;
17052;SDS011;8643;48.824;11.422;2022-12-16T09:39:45;45.80;;;20.40;;
17052;SDS011;8643;48.824;11.422;2022-12-16T09:42:36;46.60;;;20.30;;
17052;SDS011;8643;48.824;11.422;2022-12-16T09:45:35;46.93;;;20.83;;
17052;SDS011;8643;48.824;11.422;2022-12-16T09:48:32;47.43;;;20.80;;
17052;SDS011;8643;48.824;11.422;2022-12-16T09:51:32;48.40;;;20.47;;
17052;SDS011;8643;48.824;11.422;2022-12-16T09:54:22;45.57;;;19.07;;
17052;SDS011;8643;48.824;11.422;2022-12-16T09:57:13;56.40;;;21.77;;
17052;SDS011;8643;48.824;11.422;2022-12-16T10:00:03;48.07;;;20.13;;
17052;SDS011;8643;48.824;11.422;2022-12-16T10:02:52;47.43;;;19.53;;
17052;SDS011;8643;48.824;11.422;2022-12-16T10:05:43;43.90;;;19.37;;
17052;SDS011;8643;48.824;11.422;2022-12-16T10:08:38;49.63;;;20.77;;
17052;SDS011;8643;48.824;11.422;2022-12-16T10:11:37;46.40;;;19.43;;
17052;SDS011;8643;48.824;11.422;2022-12-16T10:14:39;38.97;;;17.67;;
17052;SDS011;8643;48.824;11.422;2022-12-16T10:17:36;45.93;;;19.83;;
17052;SDS011;8643;48.824;11.422;2022-12-16T10:20:31;41.93;;;17.87;;
17052;SDS011;8643;48.824;11.422;2022-12-16T10:23:28;38.73;;;17.90;;
17052;SDS011;8643;48.824;11.422;2022-12-16T10:26:21;38.67;;;17.33;;
17052;SDS011;8643;48.824;11.422;2022-12-16T10:29:29;38.23;;;17.30;;
17052;SDS011;8643;48.824;11.422;2022-12-16T10:32:24;41.67;;;18.87;;
17052;SDS011;8643;48.824;11.422;2022-12-16T10:35:21;41.03;;;18.17;;
17052;SDS011;8643;48.824;11.422;2022-12-16T10:38:13;38.33;;;16.93;;
17052;SDS011;8643;48.824;11.422;2022-12-16T10:41:06;39.67;;;18.20;;
17052;SDS011;8643;48.824;11.422;2022-12-16T10:43:55;39.03;;;18.03;;
17052;SDS011;8643;48.824;11.422;2022-12-16T10:46:44;37.00;;;16.40;;
17052;SDS011;8643;48.824;11.422;2022-12-16T10:49:30;35.07;;;16.27;;
17052;SDS011;8643;48.824;11.422;2022-12-16T10:52:21;39.87;;;17.13;;
17052;SDS011;8643;48.824;11.422;2022-12-16T10:55:11;39.13;;;17.70;;
17052;SDS011;8643;48.824;11.422;2022-12-16T10:58:14;35.03;;;16.47;;
17052;SDS011;8643;48.824;11.422;2022-12-16T11:01:19;38.53;;;17.47;;
17052;SDS011;8643;48.824;11.422;2022-12-16T11:07:27;38.93;;;17.17;;
17052;SDS011;8643;48.824;11.422;2022-12-16T11:10:25;37.13;;;17.40;;
17052;SDS011;8643;48.824;11.422;2022-12-16T11:13:19;37.17;;;16.60;;
17052;SDS011;8643;48.824;11.422;2022-12-16T11:16:13;39.13;;;17.80;;
17052;SDS011;8643;48.824;11.422;2022-12-16T11:19:14;36.70;;;15.73;;
17052;SDS011;8643;48.824;11.422;2022-12-16T11:22:05;34.43;;;14.93;;
17052;SDS011;8643;48.824;11.422;2022-12-16T11:25:08;34.60;;;15.73;;
17052;SDS011;8643;48.824;11.422;2022-12-16T11:28:03;36.67;;;16.50;;
17052;SDS011;8643;48.824;11.422;2022-12-16T11:30:56;35.20;;;16.37;;
17052;SDS011;8643;48.824;11.422;2022-12-16T11:33:46;36.20;;;16.97;;
17052;SDS011;8643;48.824;11.422;2022-12-16T11:36:34;34.03;;;14.93;;
17052;SDS011;8643;48.824;11.422;2022-12-16T11:39:23;33.93;;;15.00;;
17052;SDS011;8643;48.824;11.422;2022-12-16T11:42:15;30.90;;;14.73;;
17052;SDS011;8643;48.824;11.422;2022-12-16T11:45:11;30.00;;;14.07;;
17052;SDS011;8643;48.824;11.422;2022-12-16T11:48:02;33.57;;;15.00;;
17052;SDS011;8643;48.824;11.422;2022-12-16T11:51:01;34.37;;;14.67;;
17052;SDS011;8643;48.824;11.422;2022-12-16T11:53:49;34.30;;;15.37;;
17052;SDS011;8643;48.824;11.422;2022-12-16T11:56:43;32.37;;;14.13;;
17052;SDS011;8643;48.824;11.422;2022-12-16T11:59:32;32.77;;;15.43;;
17052;SDS011;8643;48.824;11.422;2022-12-16T12:02:28;32.47;;;15.23;;
17052;SDS011;8643;48.824;11.422;2022-12-16T12:05:23;33.53;;;15.03;;
17052;SDS011;8643;48.824;11.422;2022-12-16T12:08:19;29.80;;;14.20;;
17052;SDS011;8643;48.824;11.422;2022-12-16T12:11:15;28.97;;;13.73;;
17052;SDS011;8643;48.824;11.422;2022-12-16T12:14:10;26.40;;;13.43;;
17052;SDS011;8643;48.824;11.422;2022-12-16T12:17:15;32.37;;;13.90;;
17052;SDS011;8643;48.824;11.422;2022-12-16T12:20:20;28.83;;;13.73;;
17052;SDS011;8643;48.824;11.422;2022-12-16T12:23:31;31.13;;;13.60;;
17052;SDS011;8643;48.824;11.422;2022-12-16T12:26:31;30.73;;;14.10;;
17052;SDS011;8643;48.824;11.422;2022-12-16T12:29:22;31.80;;;14.30;;
17052;SDS011;8643;48.824;11.422;2022-12-16T12:32:25;29.50;;;13.60;;
17052;SDS011;8643;48.824;11.422;2022-12-16T12:35:25;28.63;;;12.87;;
17052;SDS011;8643;48.824;11.422;2022-12-16T12:38:34;27.13;;;12.70;;
17052;SDS011;8643;48.824;11.422;2022-12-16T12:41:41;24.33;;;11.87;;
17052;SDS011;8643;48.824;11.422;2022-12-16T12:44:44;29.70;;;13.40;;
17052;SDS011;8643;48.824;11.422;2022-12-16T12:47:45;29.80;;;13.67;;
17052;SDS011;8643;48.824;11.422;2022-12-16T12:50:42;29.60;;;12.37;;
17052;SDS011;8643;48.824;11.422;2022-12-16T12:53:42;28.60;;;13.30;;
17052;SDS011;8643;48.824;11.422;2022-12-16T12:56:40;27.73;;;12.73;;
17052;SDS011;8643;48.824;11.422;2022-12-16T12:59:36;30.13;;;13.17;;
17052;SDS011;8643;48.824;11.422;2022-12-16T13:02:43;27.30;;;12.30;;
17052;SDS011;8643;48.824;11.422;2022-12-16T13:05:46;21.63;;;10.83;;
17052;SDS011;8643;48.824;11.422;2022-12-16T13:08:45;25.87;;;12.30;;
17052;SDS011;8643;48.824;11.422;2022-12-16T13:15:19;29.17;;;11.73;;
17052;SDS011;8643;48.824;11.422;2022-12-16T13:18:27;22.53;;;10.60;;
17052;SDS011;8643;48.824;11.422;2022-12-16T13:24:34;27.97;;;11.73;;
17052;SDS011;8643;48.824;11.422;2022-12-16T13:27:25;23.10;;;11.13;;
17052;SDS011;8643;48.824;11.422;2022-12-16T13:30:18;24.33;;;10.60;;
17052;SDS011;8643;48.824;11.422;2022-12-16T13:33:20;22.80;;;10.73;;
17052;SDS011;8643;48.824;11.422;2022-12-16T13:36:14;23.80;;;10.43;;
17052;SDS011;8643;48.824;11.422;2022-12-16T13:45:35;18.90;;;9.80;;
17052;SDS011;8643;48.824;11.422;2022-12-16T13:54:46;18.90;;;8.83;;
17052;SDS011;8643;48.824;11.422;2022-12-16T13:57:50;21.57;;;8.60;;
17052;SDS011;8643;48.824;11.422;2022-12-16T14:00:41;19.93;;;8.83;;
17052;SDS011;8643;48.824;11.422;2022-12-16T14:03:37;17.83;;;9.17;;
17052;SDS011;8643;48.824;11.422;2022-12-16T14:06:29;17.10;;;9.03;;
17052;SDS011;8643;48.824;11.422;2022-12-16T14:09:23;18.37;;;8.50;;
17052;SDS011;8643;48.824;11.422;2022-12-16T14:12:27;16.07;;;8.20;;
17052;SDS011;8643;48.824;11.422;2022-12-16T14:15:31;16.23;;;8.27;;
17052;SDS011;8643;48.824;11.422;2022-12-16T14:18:32;16.93;;;8.27;;
17052;SDS011;8643;48.824;11.422;2022-12-16T14:21:33;18.47;;;8.70;;
17052;SDS011;8643;48.824;11.422;2022-12-16T14:24:29;16.20;;;8.07;;
17052;SDS011;8643;48.824;11.422;2022-12-16T14:27:16;20.67;;;8.60;;
17052;SDS011;8643;48.824;11.422;2022-12-16T14:30:13;16.33;;;8.07;;
17052;SDS011;8643;48.824;11.422;2022-12-16T14:36:24;17.77;;;8.33;;
17052;SDS011;8643;48.824;11.422;2022-12-16T14:39:13;19.07;;;9.20;;
17052;SDS011;8643;48.824;11.422;2022-12-16T14:42:13;18.10;;;9.47;;
17052;SDS011;8643;48.824;11.422;2022-12-16T14:45:04;17.10;;;8.60;;
17052;SDS011;8643;48.824;11.422;2022-12-16T14:48:12;16.37;;;8.17;;
17052;SDS011;8643;48.824;11.422;2022-12-16T14:51:26;16.10;;;8.20;;
17052;SDS011;8643;48.824;11.422;2022-12-16T14:54:17;17.83;;;8.20;;
17052;SDS011;8643;48.824;11.422;2022-12-16T14:57:10;17.27;;;9.03;;
17052;SDS011;8643;48.824;11.422;2022-12-16T15:00:02;21.13;;;9.80;;
17052;SDS011;8643;48.824;11.422;2022-12-16T15:02:58;17.97;;;8.77;;
17052;SDS011;8643;48.824;11.422;2022-12-16T15:05:51;20.87;;;9.23;;
17052;SDS011;8643;48.824;11.422;2022-12-16T15:08:48;15.13;;;7.70;;
17052;SDS011;8643;48.824;11.422;2022-12-16T15:11:40;16.57;;;8.47;;
17052;SDS011;8643;48.824;11.422;2022-12-16T15:14:29;20.53;;;10.17;;
17052;SDS011;8643;48.824;11.422;2022-12-16T15:17:19;21.47;;;10.03;;
17052;SDS011;8643;48.824;11.422;2022-12-16T15:20:10;17.57;;;7.80;;
17052;SDS011;8643;48.824;11.422;2022-12-16T15:23:09;19.03;;;8.17;;
17052;SDS011;8643;48.824;11.422;2022-12-16T15:26:03;18.43;;;9.43;;
17052;SDS011;8643;48.824;11.422;2022-12-16T15:28:50;26.10;;;12.57;;
17052;SDS011;8643;48.824;11.422;2022-12-16T15:31:37;26.07;;;13.03;;
17052;SDS011;8643;48.824;11.422;2022-12-16T15:34:35;24.13;;;12.50;;
17052;SDS011;8643;48.824;11.422;2022-12-16T15:37:34;37.20;;;19.33;;
17052;SDS011;8643;48.824;11.422;2022-12-16T15:40:30;35.27;;;18.20;;
17052;SDS011;8643;48.824;11.422;2022-12-16T15:43:25;31.27;;;15.13;;
17052;SDS011;8643;48.824;11.422;2022-12-16T15:46:17;33.37;;;14.97;;
17052;SDS011;8643;48.824;11.422;2022-12-16T15:49:05;30.07;;;13.90;;
17052;SDS011;8643;48.824;11.422;2022-12-16T15:55:26;28.60;;;13.90;;
17052;SDS011;8643;48.824;11.422;2022-12-16T15:58:18;32.17;;;16.17;;
17052;SDS011;8643;48.824;11.422;2022-12-16T16:01:10;32.40;;;14.93;;
17052;SDS011;8643;48.824;11.422;2022-12-16T16:03:59;31.63;;;14.90;;
17052;SDS011;8643;48.824;11.422;2022-12-16T16:06:46;32.23;;;15.00;;
17052;SDS011;8643;48.824;11.422;2022-12-16T16:09:34;30.97;;;15.17;;
17052;SDS011;8643;48.824;11.422;2022-12-16T16:12:26;35.47;;;15.60;;
17052;SDS011;8643;48.824;11.422;2022-12-16T16:15:12;38.43;;;18.10;;
17052;SDS011;8643;48.824;11.422;2022-12-16T16:18:01;36.93;;;17.27;;
17052;SDS011;8643;48.824;11.422;2022-12-16T16:20:49;39.53;;;18.43;;
17052;SDS011;8643;48.824;11.422;2022-12-16T16:23:36;35.10;;;15.30;;
17052;SDS011;8643;48.824;11.422;2022-12-16T16:26:24;32.67;;;15.17;;
17052;SDS011;8643;48.824;11.422;2022-12-16T16:29:12;38.07;;;17.07;;
17052;SDS011;8643;48.824;11.422;2022-12-16T16:31:58;35.53;;;16.67;;
17052;SDS011;8643;48.824;11.422;2022-12-16T16:34:47;37.00;;;17.17;;
17052;SDS011;8643;48.824;11.422;2022-12-16T16:37:33;42.67;;;20.43;;
17052;SDS011;8643;48.824;11.422;2022-12-16T16:40:21;44.10;;;21.07;;
17052;SDS011;8643;48.824;11.422;2022-12-16T16:43:15;46.47;;;21.30;;
17052;SDS011;8643;48.824;11.422;2022-12-16T16:46:02;41.37;;;19.00;;
17052;SDS011;8643;48.824;11.422;2022-12-16T16:49:08;38.77;;;16.73;;
17052;SDS011;8643;48.824;11.422;2022-12-16T16:52:02;42.10;;;17.20;;